createdAt,value
2022-09-19T00:00:29.010Z,1.3
2022-09-19T00:01:35.255Z,1.3
2022-09-19T00:02:41.488Z,1.3
2022-09-19T00:03:47.727Z,1.3
2022-09-19T00:04:53.996Z,1.3
2022-09-19T00:06:00.198Z,1.3
2022-09-19T00:07:06.444Z,1.3
2022-09-19T00:08:12.710Z,1.3
2022-09-19T00:09:18.952Z,1.3
2022-09-19T00:10:25.159Z,1.3
2022-09-19T00:11:31.387Z,1.3
2022-09-19T00:12:37.627Z,1.3
2022-09-19T00:13:43.865Z,1.3
2022-09-19T00:14:50.164Z,1.3
2022-09-19T00:15:56.345Z,1.3
2022-09-19T00:17:02.668Z,1.3
2022-09-19T00:18:08.976Z,1.3
2022-09-19T00:19:15.292Z,1.3
2022-09-19T00:20:21.615Z,1.3
2022-09-19T00:21:27.952Z,1.3
2022-09-19T00:22:34.233Z,1.3
2022-09-19T00:23:40.543Z,1.3
2022-09-19T00:24:46.854Z,1.3
2022-09-19T00:25:53.167Z,1.3
2022-09-19T00:26:59.474Z,1.3
2022-09-19T00:28:05.822Z,1.3
2022-09-19T00:29:12.107Z,1.3
2022-09-19T00:30:18.427Z,1.3
2022-09-19T00:31:24.853Z,1.3
2022-09-19T00:32:30.228Z,1.3
2022-09-19T00:33:36.476Z,1.3
2022-09-19T00:34:42.696Z,1.3
2022-09-19T00:35:48.928Z,1.3
2022-09-19T00:36:55.168Z,1.3
2022-09-19T00:38:01.387Z,1.3
2022-09-19T00:39:07.629Z,1.3
2022-09-19T00:40:13.863Z,1.3
2022-09-19T00:41:20.101Z,1.3
2022-09-19T00:42:26.357Z,9.8
2022-09-19T00:43:32.556Z,9.3
2022-09-19T00:44:38.791Z,9.89
2022-09-19T00:45:45.014Z,10.2
2022-09-19T00:46:51.241Z,10
2022-09-19T00:47:57.474Z,10.6
2022-09-19T00:49:03.697Z,9.89
2022-09-19T00:50:09.934Z,10.6
2022-09-19T00:51:16.174Z,10.8
2022-09-19T00:52:22.394Z,10.5
2022-09-19T00:53:28.637Z,10.6
2022-09-19T00:54:34.871Z,10.1
2022-09-19T00:55:41.099Z,10.3
2022-09-19T00:56:47.325Z,10.2
2022-09-19T00:57:53.580Z,10.3
2022-09-19T00:58:59.800Z,10.7
2022-09-19T01:00:06.122Z,11.1
2022-09-19T01:01:11.412Z,10.8
2022-09-19T01:02:17.642Z,9.89
2022-09-19T01:03:23.900Z,9.89
2022-09-19T01:04:30.106Z,10.4
2022-09-19T01:05:36.347Z,9.89
2022-09-19T01:06:42.565Z,9.39
2022-09-19T01:07:48.807Z,8.8
2022-09-19T01:08:55.028Z,9
2022-09-19T01:10:01.272Z,8.5
2022-09-19T01:11:07.506Z,8.1
2022-09-19T01:12:13.812Z,8.2
2022-09-19T01:13:19.985Z,7.8
2022-09-19T01:14:26.196Z,7.7
2022-09-19T01:15:32.422Z,7.8
2022-09-19T01:16:38.640Z,7.4
2022-09-19T01:17:44.889Z,7.3
2022-09-19T01:18:51.100Z,7.4
2022-09-19T01:19:57.344Z,7
2022-09-19T01:21:03.562Z,6.8
2022-09-19T01:22:09.802Z,6.5
2022-09-19T01:23:16.034Z,6.5
2022-09-19T01:24:22.270Z,6.2
2022-09-19T01:25:28.497Z,6.2
2022-09-19T01:26:34.736Z,6.4
2022-09-19T01:27:40.967Z,6.4
2022-09-19T01:28:47.284Z,5.8
2022-09-19T01:29:53.593Z,6.3
2022-09-19T01:30:58.892Z,6
2022-09-19T01:32:05.133Z,6.1
2022-09-19T01:33:11.336Z,5.3
2022-09-19T01:34:17.572Z,5.8
2022-09-19T01:35:23.800Z,5.2
2022-09-19T01:36:30.020Z,5.4
2022-09-19T01:37:36.250Z,5.2
2022-09-19T01:38:42.486Z,5.7
2022-09-19T01:39:48.707Z,5.3
2022-09-19T01:40:54.946Z,5.2
2022-09-19T01:42:01.179Z,5.8
2022-09-19T01:43:07.403Z,5.8
2022-09-19T01:44:13.639Z,5.5
2022-09-19T01:45:19.869Z,5
2022-09-19T01:46:26.097Z,5.7
2022-09-19T01:47:32.334Z,5.5
2022-09-19T01:48:38.568Z,5.3
2022-09-19T01:49:44.804Z,5.5
2022-09-19T01:50:51.036Z,5.6
2022-09-19T01:51:57.262Z,5.6
2022-09-19T01:53:03.486Z,5.4
2022-09-19T01:54:09.714Z,5.7
2022-09-19T01:55:15.939Z,5.3
2022-09-19T01:56:22.161Z,5.9
2022-09-19T01:57:28.385Z,5.8
2022-09-19T01:58:34.692Z,6
2022-09-19T01:59:39.982Z,6.4
2022-09-19T02:00:46.217Z,6.1
2022-09-19T02:01:52.431Z,6.1
2022-09-19T02:02:58.663Z,6.4
2022-09-19T02:04:04.878Z,6.3
2022-09-19T02:05:11.104Z,6.2
2022-09-19T02:06:17.360Z,6.2
2022-09-19T02:07:23.569Z,6.8
2022-09-19T02:08:29.790Z,6.8
2022-09-19T02:09:36.022Z,6.8
2022-09-19T02:10:42.247Z,6.9
2022-09-19T02:11:48.481Z,6.9
2022-09-19T02:12:54.715Z,7.3
2022-09-19T02:14:00.946Z,7.3
2022-09-19T02:15:07.175Z,7.6
2022-09-19T02:16:13.400Z,7.3
2022-09-19T02:17:19.634Z,7.3
2022-09-19T02:18:25.867Z,7.5
2022-09-19T02:19:32.105Z,7.1
2022-09-19T02:20:38.335Z,7.6
2022-09-19T02:21:44.567Z,7.8
2022-09-19T02:22:50.796Z,7.6
2022-09-19T02:23:57.023Z,7.9
2022-09-19T02:25:03.262Z,8.3
2022-09-19T02:26:09.507Z,7.5
2022-09-19T02:27:15.821Z,7
2022-09-19T02:28:22.133Z,6.8
2022-09-19T02:29:28.453Z,7
2022-09-19T02:30:34.762Z,7
2022-09-19T02:31:41.079Z,6.9
2022-09-19T02:32:47.371Z,6.9
2022-09-19T02:33:53.708Z,7.5
2022-09-19T02:35:00.004Z,7.2
2022-09-19T02:36:06.312Z,7.6
2022-09-19T02:37:12.616Z,7.3
2022-09-19T02:38:18.930Z,7
2022-09-19T02:39:25.255Z,7
2022-09-19T02:40:31.557Z,7.3
2022-09-19T02:41:37.999Z,7.2
2022-09-19T02:42:43.370Z,7.2
2022-09-19T02:43:49.618Z,7.1
2022-09-19T02:44:55.833Z,7.1
2022-09-19T02:46:02.060Z,6.9
2022-09-19T02:47:08.284Z,7.4
2022-09-19T02:48:14.526Z,7.3
2022-09-19T02:49:20.875Z,7.4
2022-09-19T02:50:26.993Z,7.8
2022-09-19T02:51:33.232Z,7.7
2022-09-19T02:52:39.454Z,7.7
2022-09-19T02:53:45.722Z,7.4
2022-09-19T02:54:51.922Z,7.6
2022-09-19T02:55:58.146Z,8
2022-09-19T02:57:04.377Z,8
2022-09-19T02:58:10.621Z,8.1
2022-09-19T02:59:16.839Z,9.1
2022-09-19T03:00:23.072Z,8.1
2022-09-19T03:01:29.300Z,8.39
2022-09-19T03:02:35.537Z,8.5
2022-09-19T03:03:41.770Z,8.2
2022-09-19T03:04:48.002Z,8.39
2022-09-19T03:05:54.241Z,8.7
2022-09-19T03:07:00.464Z,8.7
2022-09-19T03:08:06.703Z,8.5
2022-09-19T03:09:12.935Z,8.7
2022-09-19T03:10:19.242Z,8.89
2022-09-19T03:11:25.559Z,8.89
2022-09-19T03:12:31.849Z,9.1
2022-09-19T03:13:38.159Z,9.3
2022-09-19T03:14:43.449Z,9.3
2022-09-19T03:15:49.686Z,8.7
2022-09-19T03:16:55.919Z,8.89
2022-09-19T03:18:02.150Z,8.8
2022-09-19T03:19:08.371Z,9.39
2022-09-19T03:20:14.604Z,8.8
2022-09-19T03:21:20.824Z,9.5
2022-09-19T03:22:27.055Z,10
2022-09-19T03:23:33.273Z,9.3
2022-09-19T03:24:39.514Z,9.8
2022-09-19T03:25:45.729Z,9.7
2022-09-19T03:26:51.967Z,9.89
2022-09-19T03:27:58.192Z,9.6
2022-09-19T03:29:04.422Z,9.89
2022-09-19T03:30:10.646Z,9.89
2022-09-19T03:31:16.867Z,10.1
2022-09-19T03:32:23.108Z,9.5
2022-09-19T03:33:29.322Z,9.7
2022-09-19T03:34:35.539Z,10.1
2022-09-19T03:35:41.771Z,9.5
2022-09-19T03:36:48.007Z,10.2
2022-09-19T03:37:54.235Z,10.2
2022-09-19T03:39:00.467Z,10.4
2022-09-19T03:40:06.672Z,10.4
2022-09-19T03:41:12.901Z,10.6
2022-09-19T03:42:19.203Z,10.4
2022-09-19T03:43:25.517Z,10.7
2022-09-19T03:44:30.822Z,10.5
2022-09-19T03:45:37.046Z,10.7
2022-09-19T03:46:43.281Z,11.1
2022-09-19T03:47:49.502Z,11.2
2022-09-19T03:48:55.745Z,11
2022-09-19T03:50:01.991Z,11.9
2022-09-19T03:51:08.189Z,11.4
2022-09-19T03:52:14.417Z,12.3
2022-09-19T03:53:20.642Z,12.5
2022-09-19T03:54:26.875Z,12.4
2022-09-19T03:55:33.094Z,12.1
2022-09-19T03:56:39.320Z,12.3
2022-09-19T03:57:45.550Z,12.7
2022-09-19T03:58:51.804Z,11.9
2022-09-19T03:59:57.989Z,12.2
2022-09-19T04:01:04.219Z,11.3
2022-09-19T04:02:10.461Z,12.2
2022-09-19T04:03:16.682Z,12.6
2022-09-19T04:04:22.901Z,12.7
2022-09-19T04:05:29.142Z,12.6
2022-09-19T04:06:35.357Z,12.3
2022-09-19T04:07:41.576Z,12.3
2022-09-19T04:08:47.804Z,12.1
2022-09-19T04:09:54.043Z,12.2
2022-09-19T04:11:00.259Z,12.1
2022-09-19T04:12:06.560Z,12
2022-09-19T04:13:11.873Z,12.3
2022-09-19T04:14:18.076Z,12.5
2022-09-19T04:15:24.319Z,12.1
2022-09-19T04:16:30.530Z,11.6
2022-09-19T04:17:36.767Z,12.1
2022-09-19T04:18:42.980Z,11.9
2022-09-19T04:19:49.206Z,11.5
2022-09-19T04:20:55.433Z,11.8
2022-09-19T04:22:01.655Z,11.9
2022-09-19T04:23:07.873Z,11
2022-09-19T04:24:14.098Z,11.2
2022-09-19T04:25:20.363Z,10.8
2022-09-19T04:26:26.541Z,10.9
2022-09-19T04:27:32.811Z,10.9
2022-09-19T04:28:38.997Z,11.1
2022-09-19T04:29:45.213Z,10.4
2022-09-19T04:30:51.456Z,11.1
2022-09-19T04:31:57.668Z,10.7
2022-09-19T04:33:03.887Z,10.9
2022-09-19T04:34:10.076Z,10.9
2022-09-19T04:35:16.352Z,10.7
2022-09-19T04:36:22.587Z,10.3
2022-09-19T04:37:28.849Z,9.89
2022-09-19T04:38:35.003Z,9.1
2022-09-19T04:39:41.235Z,8.5
2022-09-19T04:40:47.594Z,8.8
2022-09-19T04:41:52.816Z,8.1
2022-09-19T04:42:59.040Z,7
2022-09-19T04:44:05.277Z,7.3
2022-09-19T04:45:11.521Z,7.2
2022-09-19T04:46:17.770Z,7.1
2022-09-19T04:47:23.939Z,6.8
2022-09-19T04:48:30.160Z,6.3
2022-09-19T04:49:36.382Z,6.6
2022-09-19T04:50:42.604Z,7
2022-09-19T04:51:48.812Z,6.7
2022-09-19T04:52:55.044Z,6.4
2022-09-19T04:54:01.268Z,5.9
2022-09-19T04:55:07.500Z,5
2022-09-19T04:56:13.719Z,4.4
2022-09-19T04:57:19.941Z,4.8
2022-09-19T04:58:26.179Z,4.3
2022-09-19T04:59:32.394Z,3.8
2022-09-19T05:00:38.634Z,3.9
2022-09-19T05:01:44.857Z,3.1
2022-09-19T05:02:51.075Z,3.1
2022-09-19T05:03:57.335Z,3.2
2022-09-19T05:05:03.530Z,2.8
2022-09-19T05:06:09.754Z,2.6
2022-09-19T05:07:15.982Z,2.5
2022-09-19T05:08:22.199Z,2.2
2022-09-19T05:09:28.510Z,2.2
2022-09-19T05:10:33.797Z,2.09
2022-09-19T05:11:40.023Z,2.4
2022-09-19T05:12:46.278Z,2.5
2022-09-19T05:13:52.489Z,2.2
2022-09-19T05:14:58.714Z,1.9
2022-09-19T05:16:04.933Z,1.9
2022-09-19T05:17:11.166Z,1.9
2022-09-19T05:18:17.379Z,1.8
2022-09-19T05:19:23.611Z,1.8
2022-09-19T05:20:29.863Z,2
2022-09-19T05:21:36.069Z,1.7
2022-09-19T05:22:42.302Z,1.8
2022-09-19T05:23:48.528Z,2
2022-09-19T05:24:54.774Z,1.9
2022-09-19T05:26:00.995Z,2.09
2022-09-19T05:27:07.228Z,2
2022-09-19T05:28:13.451Z,2
2022-09-19T05:29:19.678Z,2
2022-09-19T05:30:25.913Z,2
2022-09-19T05:31:32.189Z,2
2022-09-19T05:32:38.370Z,2
2022-09-19T05:33:44.585Z,2
2022-09-19T05:34:50.850Z,2
2022-09-19T05:35:57.031Z,2
2022-09-19T05:37:03.253Z,2
2022-09-19T05:38:09.562Z,2
2022-09-19T05:39:14.861Z,2
2022-09-19T05:40:21.083Z,2
2022-09-19T05:41:27.313Z,2
2022-09-19T05:42:33.529Z,2
2022-09-19T05:43:39.776Z,2
2022-09-19T05:44:45.985Z,2
2022-09-19T05:45:52.210Z,2
2022-09-19T05:46:58.471Z,2
2022-09-19T05:48:04.673Z,2
2022-09-19T05:49:10.897Z,2
2022-09-19T05:50:17.118Z,2
2022-09-19T05:51:23.345Z,2
2022-09-19T05:52:29.566Z,2
2022-09-19T05:53:35.789Z,2
2022-09-19T05:54:42.000Z,2
2022-09-19T05:55:48.222Z,2
2022-09-19T05:56:54.441Z,2
2022-09-19T05:58:00.676Z,2
2022-09-19T05:59:06.902Z,2
2022-09-19T06:00:13.137Z,2
2022-09-19T06:01:19.359Z,2
2022-09-19T06:02:25.581Z,2
2022-09-19T06:03:31.806Z,2
2022-09-19T06:04:38.008Z,2
2022-09-19T06:05:44.252Z,2
2022-09-19T06:06:50.523Z,2
2022-09-19T06:07:55.872Z,2
2022-09-19T06:09:02.076Z,2
2022-09-19T06:10:08.257Z,2
2022-09-19T06:11:14.487Z,2
2022-09-19T06:12:20.686Z,2
2022-09-19T06:13:26.912Z,2
2022-09-19T06:14:33.153Z,2
2022-09-19T06:15:39.337Z,2
2022-09-19T06:16:45.547Z,2
2022-09-19T06:17:51.775Z,2
2022-09-19T06:18:57.986Z,2
2022-09-19T06:20:04.235Z,2
2022-09-19T06:21:10.423Z,2
2022-09-19T06:22:16.777Z,2
2022-09-19T06:23:22.857Z,2
2022-09-19T06:24:29.064Z,2
2022-09-19T06:25:35.276Z,2
2022-09-19T06:26:41.495Z,2
2022-09-19T06:27:47.712Z,2
2022-09-19T06:28:53.923Z,2
2022-09-19T06:30:00.133Z,2
2022-09-19T06:31:06.405Z,2
2022-09-19T06:32:12.570Z,2
2022-09-19T06:33:18.880Z,2
2022-09-19T06:34:25.087Z,2
2022-09-19T06:35:31.310Z,2
2022-09-19T06:36:36.598Z,2
2022-09-19T06:37:42.795Z,2
2022-09-19T06:38:49.060Z,2
2022-09-19T06:39:55.262Z,2
2022-09-19T06:41:01.462Z,2
2022-09-19T06:42:07.670Z,2
2022-09-19T06:43:13.887Z,2
2022-09-19T06:44:20.110Z,2
2022-09-19T06:45:26.332Z,2
2022-09-19T06:46:32.551Z,2
2022-09-19T06:47:38.768Z,2
2022-09-19T06:48:44.980Z,2
2022-09-19T06:49:51.197Z,2
2022-09-19T06:50:57.414Z,2
2022-09-19T06:52:03.627Z,2
2022-09-19T06:53:09.841Z,2
2022-09-19T06:54:16.061Z,2
2022-09-19T06:55:22.285Z,2
2022-09-19T06:56:28.496Z,2
2022-09-19T06:57:34.710Z,2
2022-09-19T06:58:40.924Z,2
2022-09-19T06:59:47.160Z,2
2022-09-19T07:00:53.372Z,2
2022-09-19T07:01:59.592Z,2
2022-09-19T07:03:05.792Z,2
2022-09-19T07:04:12.095Z,2
2022-09-19T07:05:17.371Z,2
2022-09-19T07:06:23.587Z,2
2022-09-19T07:07:29.805Z,2
2022-09-19T07:08:36.018Z,2
2022-09-19T07:09:42.224Z,2
2022-09-19T07:10:48.438Z,2
2022-09-19T07:11:54.659Z,2
2022-09-19T07:13:00.870Z,9.8
2022-09-19T07:14:07.079Z,9.8
2022-09-19T07:15:13.298Z,9.8
2022-09-19T07:16:19.520Z,9.8
2022-09-19T07:17:25.724Z,9.8
2022-09-19T07:18:31.958Z,9.2
2022-09-19T07:19:38.172Z,9.2
2022-09-19T07:20:44.397Z,9.2
2022-09-19T07:21:50.633Z,9.2
2022-09-19T07:22:56.956Z,9.2
2022-09-19T07:24:03.041Z,9.2
2022-09-19T07:25:09.267Z,9.2
2022-09-19T07:26:15.461Z,9.2
2022-09-19T07:27:21.678Z,9.2
2022-09-19T07:28:27.887Z,9.2
2022-09-19T07:29:34.110Z,9.2
2022-09-19T07:30:40.316Z,9.2
2022-09-19T07:31:46.515Z,9.2
2022-09-19T07:32:52.836Z,9.2
2022-09-19T07:33:58.088Z,9.2
2022-09-19T07:35:04.384Z,9.2
2022-09-19T07:36:10.628Z,9.2
2022-09-19T07:37:16.730Z,9.2
2022-09-19T07:38:22.935Z,9.2
2022-09-19T07:39:29.125Z,9.2
2022-09-19T07:40:35.329Z,9.2
2022-09-19T07:41:41.678Z,9.2
2022-09-19T07:42:47.763Z,9.2
2022-09-19T07:43:54.130Z,9.2
2022-09-19T07:45:00.315Z,9.2
2022-09-19T07:46:06.510Z,9.2
2022-09-19T07:47:12.721Z,9.2
2022-09-19T07:48:18.896Z,9.2
2022-09-19T07:49:25.103Z,9.2
2022-09-19T07:50:31.278Z,9.2
2022-09-19T07:51:37.542Z,9.2
2022-09-19T07:52:43.750Z,9.2
2022-09-19T07:53:50.016Z,9.2
2022-09-19T07:54:56.135Z,9.2
2022-09-19T07:56:02.435Z,9.2
2022-09-19T07:57:08.700Z,9.2
2022-09-19T07:58:14.869Z,9.2
2022-09-19T07:59:20.950Z,9.2
2022-09-19T08:00:27.159Z,9.2
2022-09-19T08:01:33.445Z,9.2
2022-09-19T08:02:38.720Z,9.2
2022-09-19T08:03:44.931Z,9.2
2022-09-19T08:04:51.144Z,9.2
2022-09-19T08:05:57.350Z,9.2
2022-09-19T08:07:03.614Z,9.2
2022-09-19T08:08:09.763Z,9.2
2022-09-19T08:09:15.978Z,9.2
2022-09-19T08:10:22.186Z,9.2
2022-09-19T08:11:28.383Z,9.2
2022-09-19T08:12:34.586Z,9.2
2022-09-19T08:13:40.795Z,9.2
2022-09-19T08:14:47.002Z,9.2
2022-09-19T08:15:53.201Z,9.2
2022-09-19T08:16:59.410Z,7.8
2022-09-19T08:18:05.611Z,8
2022-09-19T08:19:11.830Z,6.9
2022-09-19T08:20:18.031Z,7.5
2022-09-19T08:21:24.231Z,6.8
2022-09-19T08:22:30.437Z,6.7
2022-09-19T08:23:36.653Z,6.1
2022-09-19T08:24:42.858Z,6.8
2022-09-19T08:25:49.066Z,6.8
2022-09-19T08:26:55.283Z,6.2
2022-09-19T08:28:01.483Z,6.3
2022-09-19T08:29:07.693Z,6.7
2022-09-19T08:30:13.980Z,6.2
2022-09-19T08:31:19.255Z,5.8
2022-09-19T08:32:25.480Z,5.9
2022-09-19T08:33:31.768Z,6
2022-09-19T08:34:37.906Z,6.6
2022-09-19T08:35:44.101Z,6.4
2022-09-19T08:36:50.298Z,6.1
2022-09-19T08:37:56.579Z,6.2
2022-09-19T08:39:02.714Z,5.9
2022-09-19T08:40:08.916Z,5.7
2022-09-19T08:41:15.124Z,5.6
2022-09-19T08:42:21.313Z,5.1
2022-09-19T08:43:26.540Z,5.5
2022-09-19T08:44:31.745Z,5.4
2022-09-19T08:45:36.969Z,5.1
2022-09-19T08:46:42.156Z,5.7
2022-09-19T08:47:48.338Z,5.8
2022-09-19T08:48:54.527Z,5.9
2022-09-19T08:50:00.721Z,6.1
2022-09-19T08:51:06.912Z,6.2
2022-09-19T08:52:13.099Z,6.6
2022-09-19T08:53:19.296Z,6.3
2022-09-19T08:54:25.483Z,6.3
2022-09-19T08:55:31.681Z,6.4
2022-09-19T08:56:37.869Z,6.2
2022-09-19T08:57:44.063Z,6.2
2022-09-19T08:58:50.247Z,6.4
2022-09-19T08:59:56.440Z,6.3
2022-09-19T09:01:01.647Z,6.2
2022-09-19T09:02:07.834Z,6.1
2022-09-19T09:03:14.191Z,6.2
2022-09-19T09:04:20.236Z,6.4
2022-09-19T09:05:26.440Z,6.1
2022-09-19T09:06:32.671Z,6
2022-09-19T09:07:38.874Z,5.6
2022-09-19T09:08:45.028Z,6.1
2022-09-19T09:09:51.147Z,5.9
2022-09-19T09:10:57.362Z,5.5
2022-09-19T09:12:03.632Z,5.6
2022-09-19T09:13:09.714Z,5.8
2022-09-19T09:14:15.868Z,5.8
2022-09-19T09:15:21.099Z,5.6
2022-09-19T09:16:27.342Z,5.6
2022-09-19T09:17:33.561Z,5.5
2022-09-19T09:18:39.604Z,5.5
2022-09-19T09:19:45.921Z,5.4
2022-09-19T09:20:52.049Z,5.8
2022-09-19T09:21:58.139Z,5.5
2022-09-19T09:23:04.308Z,5.5
2022-09-19T09:24:10.466Z,4.9
2022-09-19T09:25:16.664Z,5.3
2022-09-19T09:26:22.873Z,5.1
2022-09-19T09:27:29.110Z,5.2
2022-09-19T09:28:35.225Z,5.1
2022-09-19T09:29:40.352Z,5.1
2022-09-19T09:30:46.532Z,5
2022-09-19T09:31:52.774Z,4.9
2022-09-19T09:32:59.006Z,4.5
2022-09-19T09:34:05.174Z,4.4
2022-09-19T09:35:11.313Z,4.3
2022-09-19T09:36:17.393Z,4.4
2022-09-19T09:37:23.692Z,4
2022-09-19T09:38:29.833Z,4
2022-09-19T09:39:36.011Z,3.9
2022-09-19T09:40:42.123Z,3.8
2022-09-19T09:41:48.331Z,3.4
2022-09-19T09:42:54.496Z,3.4
2022-09-19T09:43:59.531Z,3.4
2022-09-19T09:45:05.699Z,3.3
2022-09-19T09:46:11.887Z,3.2
2022-09-19T09:47:18.113Z,3.2
2022-09-19T09:48:24.269Z,3.2
2022-09-19T09:49:30.386Z,2.9
2022-09-19T09:50:36.544Z,2.8
2022-09-19T09:51:42.573Z,2.9
2022-09-19T09:52:48.827Z,2.8
2022-09-19T09:53:54.972Z,2.9
2022-09-19T09:55:01.007Z,2.8
2022-09-19T09:56:07.281Z,3
2022-09-19T09:57:13.402Z,3.2
2022-09-19T09:58:18.605Z,3.2
2022-09-19T09:59:24.750Z,3
2022-09-19T10:00:30.913Z,2.9
2022-09-19T10:01:37.031Z,2.8
2022-09-19T10:02:43.164Z,2.7
2022-09-19T10:03:49.373Z,2.8
2022-09-19T10:04:55.403Z,2.8
2022-09-19T10:06:01.596Z,2.8
2022-09-19T10:07:07.742Z,2.8
2022-09-19T10:08:13.832Z,2.8
2022-09-19T10:09:20.049Z,2.8
2022-09-19T10:10:26.146Z,2.8
2022-09-19T10:11:32.153Z,2.8
2022-09-19T10:12:37.445Z,2.8
2022-09-19T10:13:43.585Z,2.8
2022-09-19T10:14:49.724Z,2.8
2022-09-19T10:15:55.840Z,2.8
2022-09-19T10:17:01.950Z,2.8
2022-09-19T10:18:08.046Z,2.8
2022-09-19T10:19:14.252Z,2.8
2022-09-19T10:20:20.395Z,2.8
2022-09-19T10:21:26.528Z,2.8
2022-09-19T10:22:32.668Z,2.8
2022-09-19T10:23:38.812Z,2.8
2022-09-19T10:24:44.959Z,2.8
2022-09-19T10:25:50.943Z,2.8
2022-09-19T10:26:57.219Z,2.8
2022-09-19T10:28:02.356Z,2.8
2022-09-19T10:29:08.506Z,2.8
2022-09-19T10:30:14.504Z,2.8
2022-09-19T10:31:20.637Z,2.8
2022-09-19T10:32:26.900Z,2.8
2022-09-19T10:33:33.069Z,2.8
2022-09-19T10:34:39.183Z,2.8
2022-09-19T10:35:45.335Z,2.8
2022-09-19T10:36:51.335Z,2.8
2022-09-19T10:37:57.529Z,2.8
2022-09-19T10:39:03.763Z,2.8
2022-09-19T10:40:09.890Z,2.8
2022-09-19T10:41:16.033Z,2.7
2022-09-19T10:42:21.178Z,2.6
2022-09-19T10:43:27.336Z,2.4
2022-09-19T10:44:33.395Z,2.6
2022-09-19T10:45:39.622Z,2.5
2022-09-19T10:46:45.744Z,10
2022-09-19T10:47:51.794Z,3.1
2022-09-19T10:48:58.055Z,2.4
2022-09-19T10:50:04.094Z,2.4
2022-09-19T10:51:10.329Z,2.2
2022-09-19T10:52:16.461Z,2.3
2022-09-19T10:53:22.598Z,2.09
2022-09-19T10:54:28.741Z,2
2022-09-19T10:55:34.893Z,2.09
2022-09-19T10:56:40.030Z,2
2022-09-19T10:57:46.176Z,2
2022-09-19T10:58:52.323Z,1.9
2022-09-19T10:59:58.448Z,1.9
2022-09-19T11:01:04.447Z,1.8
2022-09-19T11:02:10.740Z,1.8
2022-09-19T11:03:16.848Z,2.2
2022-09-19T11:04:23.012Z,1.9
2022-09-19T11:05:29.137Z,1.7
2022-09-19T11:06:35.279Z,2
2022-09-19T11:07:41.423Z,1.8
2022-09-19T11:08:47.568Z,1.9
2022-09-19T11:09:53.731Z,1.8
2022-09-19T11:10:58.848Z,1.7
2022-09-19T11:12:04.868Z,1.6
2022-09-19T11:13:11.140Z,1.6
2022-09-19T11:14:17.315Z,1.6
2022-09-19T11:15:22.460Z,1.5
2022-09-19T11:16:28.566Z,1.6
2022-09-19T11:17:34.722Z,1.5
2022-09-19T11:18:40.861Z,1.5
2022-09-19T11:19:46.991Z,1.5
2022-09-19T11:20:53.138Z,1.5
2022-09-19T11:21:59.125Z,1.5
2022-09-19T11:23:05.394Z,1.5
2022-09-19T11:24:11.540Z,1.4
2022-09-19T11:25:17.676Z,1.4
2022-09-19T11:26:23.807Z,1.4
2022-09-19T11:27:29.959Z,1.2
2022-09-19T11:28:36.086Z,1.2
2022-09-19T11:29:41.237Z,1.3
2022-09-19T11:30:47.416Z,1.2
2022-09-19T11:31:53.561Z,1.2
2022-09-19T11:32:59.701Z,1.3
2022-09-19T11:34:05.851Z,1.3
2022-09-19T11:35:11.979Z,1.2
2022-09-19T11:36:18.014Z,1.1
2022-09-19T11:37:24.235Z,1.1
2022-09-19T11:38:30.441Z,1.2
2022-09-19T11:39:36.585Z,1.2
2022-09-19T11:40:42.746Z,1.2
2022-09-19T11:41:48.890Z,1.2
2022-09-19T11:42:55.019Z,1.1
2022-09-19T11:44:00.190Z,1.2
2022-09-19T11:45:06.332Z,1.2
2022-09-19T11:46:12.480Z,1.1
2022-09-19T11:47:18.523Z,1.2
2022-09-19T11:48:24.775Z,1.1
2022-09-19T11:49:30.876Z,1.3
2022-09-19T11:50:37.029Z,1.2
2022-09-19T11:51:43.072Z,1.1
2022-09-19T11:52:49.350Z,1.3
2022-09-19T11:53:55.473Z,1.2
2022-09-19T11:55:01.623Z,1.3
2022-09-19T11:56:07.640Z,1.3
2022-09-19T11:57:13.893Z,1.2
2022-09-19T11:58:19.050Z,1.2
2022-09-19T11:59:25.188Z,1
2022-09-19T12:00:31.313Z,1.2
2022-09-19T12:01:37.447Z,1
2022-09-19T12:02:43.543Z,1.1
2022-09-19T12:03:49.694Z,1.1
2022-09-19T12:04:55.847Z,1.1
2022-09-19T12:06:01.893Z,1.3
2022-09-19T12:07:08.083Z,1
2022-09-19T12:08:14.199Z,1.1
2022-09-19T12:09:20.323Z,1.2
2022-09-19T12:10:26.423Z,1
2022-09-19T12:11:32.554Z,1
2022-09-19T12:12:38.679Z,0.8
2022-09-19T12:13:44.797Z,1
2022-09-19T12:14:50.908Z,1
2022-09-19T12:15:57.010Z,0.9
2022-09-19T12:17:02.981Z,1.9
2022-09-19T12:18:09.231Z,2.4
2022-09-19T12:19:15.344Z,1
2022-09-19T12:20:21.498Z,1.1
2022-09-19T12:21:27.447Z,1.1
2022-09-19T12:22:33.665Z,1
2022-09-19T12:23:39.818Z,1
2022-09-19T12:24:45.906Z,1
2022-09-19T12:25:52.046Z,1
2022-09-19T12:26:58.155Z,1
2022-09-19T12:28:04.206Z,1
2022-09-19T12:29:10.383Z,1
2022-09-19T12:30:16.513Z,1
2022-09-19T12:31:22.649Z,1
2022-09-19T12:32:28.646Z,1
2022-09-19T12:33:34.855Z,1
2022-09-19T12:34:40.982Z,1
2022-09-19T12:35:46.061Z,1
2022-09-19T12:36:52.257Z,1
2022-09-19T12:37:58.391Z,1
2022-09-19T12:39:04.498Z,1
2022-09-19T12:40:10.685Z,1
2022-09-19T12:41:16.744Z,1
2022-09-19T12:42:22.875Z,1
2022-09-19T12:43:28.996Z,1
2022-09-19T12:44:35.144Z,1
2022-09-19T12:45:41.241Z,1
2022-09-19T12:46:47.394Z,1
2022-09-19T12:47:53.507Z,1
2022-09-19T12:48:59.627Z,1
2022-09-19T12:50:05.706Z,1
2022-09-19T12:51:11.889Z,1
2022-09-19T12:52:17.918Z,1
2022-09-19T12:53:24.115Z,1
2022-09-19T12:54:30.230Z,1
2022-09-19T12:55:36.372Z,1
2022-09-19T12:56:42.468Z,1
2022-09-19T12:57:48.525Z,1
2022-09-19T12:58:54.713Z,1
2022-09-19T13:00:00.832Z,1
2022-09-19T13:01:06.908Z,1
2022-09-19T13:02:12.908Z,1
2022-09-19T13:03:19.161Z,1
2022-09-19T13:04:24.321Z,1
2022-09-19T13:05:30.427Z,1
2022-09-19T13:06:36.565Z,1
2022-09-19T13:07:42.673Z,1
2022-09-19T13:08:48.797Z,1
2022-09-19T13:09:54.815Z,1
2022-09-19T13:11:01.030Z,1
2022-09-19T13:12:07.156Z,1
2022-09-19T13:13:13.267Z,1
2022-09-19T13:14:19.356Z,1
2022-09-19T13:15:25.511Z,1.7
2022-09-19T13:18:43.900Z,0.8
2022-09-19T13:19:50.034Z,0.9
2022-09-19T13:20:56.150Z,0.9
2022-09-19T13:22:01.285Z,0.8
2022-09-19T13:23:07.353Z,0.8
2022-09-19T13:24:13.569Z,0.8
2022-09-19T13:25:19.678Z,0.8
2022-09-19T13:26:25.829Z,0.8
2022-09-19T13:27:31.980Z,0.8
2022-09-19T13:28:38.085Z,0.8
2022-09-19T13:29:44.231Z,0.8
2022-09-19T13:30:50.198Z,0.8
2022-09-19T13:31:56.482Z,0.8
2022-09-19T13:33:02.447Z,0.8
2022-09-19T13:34:08.591Z,0.8
2022-09-19T13:35:14.819Z,0.8
2022-09-19T13:36:20.963Z,0.8
2022-09-19T13:37:27.113Z,0.8
2022-09-19T13:38:33.188Z,0.8
2022-09-19T13:39:39.303Z,0.8
2022-09-19T13:40:44.475Z,0.8
2022-09-19T13:41:50.605Z,0.8
2022-09-19T13:42:56.719Z,0.8
2022-09-19T13:44:02.810Z,0.8
2022-09-19T13:45:09.019Z,0.8
2022-09-19T13:46:14.987Z,0.8
2022-09-19T13:47:21.283Z,0.9
2022-09-19T13:48:27.411Z,0.7
2022-09-19T13:49:33.529Z,1.4
2022-09-19T13:50:39.654Z,1.4
2022-09-19T13:51:45.645Z,1.4
2022-09-19T13:52:51.940Z,1.4
2022-09-19T13:53:57.893Z,1.4
2022-09-19T13:55:04.176Z,1.4
2022-09-19T13:56:09.316Z,1.4
2022-09-19T13:57:15.448Z,1.4
2022-09-19T13:58:21.563Z,1.4
2022-09-19T13:59:27.730Z,1.4
2022-09-19T14:00:33.679Z,1.4
2022-09-19T14:01:39.903Z,1.4
2022-09-19T14:02:46.060Z,1.4
2022-09-19T14:03:52.200Z,1.4
2022-09-19T14:04:58.331Z,1.4
2022-09-19T14:06:04.320Z,1.4
2022-09-19T14:07:10.566Z,1.4
2022-09-19T14:08:16.723Z,1.4
2022-09-19T14:09:22.843Z,1.4
2022-09-19T14:10:27.867Z,1.4
2022-09-19T14:11:34.127Z,1.4
2022-09-19T14:12:40.239Z,1.4
2022-09-19T14:13:46.332Z,1.4
2022-09-19T14:14:52.484Z,1.4
2022-09-19T14:15:58.593Z,1.4
2022-09-19T14:17:04.776Z,1.4
2022-09-19T14:18:10.890Z,0.7
2022-09-19T14:19:16.979Z,0.7
2022-09-19T14:20:23.065Z,0.6
2022-09-19T14:21:29.297Z,0.6
2022-09-19T14:22:35.389Z,0.6
2022-09-19T14:23:41.561Z,0.6
2022-09-19T14:24:46.690Z,1
2022-09-19T14:25:52.823Z,1.8
2022-09-19T14:26:58.936Z,1.6
2022-09-19T14:28:04.950Z,0.9
2022-09-19T14:29:11.226Z,1.1
2022-09-19T14:30:17.218Z,1.2
2022-09-19T14:31:23.308Z,1
2022-09-19T14:32:29.567Z,1.2
2022-09-19T14:33:35.674Z,2.2
2022-09-19T14:34:41.810Z,1.4
2022-09-19T14:35:47.965Z,0.9
2022-09-19T14:36:54.060Z,0.7
2022-09-19T14:38:00.262Z,0.9
2022-09-19T14:39:06.218Z,0.7
2022-09-19T14:40:12.342Z,0.7
2022-09-19T14:41:18.463Z,0.8
2022-09-19T14:42:24.637Z,0.7
2022-09-19T14:43:30.839Z,0.8
2022-09-19T14:44:36.860Z,0.9
2022-09-19T14:45:42.966Z,0.8
2022-09-19T14:46:49.087Z,0.8
2022-09-19T14:47:55.326Z,0.7
2022-09-19T14:49:01.388Z,0.9
2022-09-19T14:50:07.574Z,0.8
2022-09-19T14:51:13.591Z,0.9
2022-09-19T14:52:19.778Z,0.8
2022-09-19T14:53:25.841Z,0.7
2022-09-19T14:54:31.963Z,0.8
2022-09-19T14:55:38.097Z,0.9
2022-09-19T14:56:44.233Z,0.9
2022-09-19T14:57:50.374Z,0.9
2022-09-19T14:58:56.607Z,0.9
2022-09-19T15:00:02.748Z,0.8
2022-09-19T15:01:08.889Z,0.7
2022-09-19T15:02:15.020Z,0.9
2022-09-19T15:03:20.186Z,0.8
2022-09-19T15:04:26.309Z,0.8
2022-09-19T15:05:32.431Z,0.9
2022-09-19T15:06:38.584Z,0.8
2022-09-19T15:07:44.707Z,0.9
2022-09-19T15:08:50.876Z,0.9
2022-09-19T15:09:56.838Z,0.9
2022-09-19T15:11:03.115Z,0.8
2022-09-19T15:12:09.226Z,0.8
2022-09-19T15:13:15.353Z,0.8
2022-09-19T15:14:21.523Z,0.8
2022-09-19T15:15:27.659Z,0.8
2022-09-19T15:16:33.832Z,0.8
2022-09-19T15:17:38.945Z,0.8
2022-09-19T15:18:45.087Z,0.8
2022-09-19T15:19:51.203Z,0.8
2022-09-19T15:20:57.337Z,0.8
2022-09-19T15:22:03.450Z,0.8
2022-09-19T15:23:09.593Z,0.8